Time;durP1;ratioP1;P1;durP2;ratioP2;P2;SDS_P1;SDS_P2;PMS_P1;PMS_P2;Temp;Humidity;BMP_temperature;BMP_pressure;BME280_temperature;BME280_humidity;BME280_pressure;Samples;Min_cycle;Max_cycle;Signal;HPM_P1;HPM_P2
2022/03/28 00:01:42;;;;;;;2.00;1.63;;;;;;;;;;5021594;28;20212;-67
2022/03/28 00:04:30;;;;;;;1.73;1.43;;;;;;;;;;5021759;28;20285;-67
2022/03/28 00:07:17;;;;;;;3.33;1.60;;;;;;;;;;5023919;28;20293;-67
2022/03/28 00:10:05;;;;;;;1.50;1.40;;;;;;;;;;5020790;28;20340;-67
2022/03/28 00:12:52;;;;;;;1.97;1.77;;;;;;;;;;5023130;28;20321;-67
2022/03/28 00:15:39;;;;;;;1.60;1.50;;;;;;;;;;5024687;28;20262;-67
2022/03/28 00:18:26;;;;;;;1.50;1.20;;;;;;;;;;5025261;28;20209;-66
2022/03/28 00:21:14;;;;;;;1.53;1.30;;;;;;;;;;5025661;28;20673;-67
2022/03/28 00:24:01;;;;;;;1.10;1.00;;;;;;;;;;5023037;28;20315;-67
2022/03/28 00:26:48;;;;;;;2.37;1.67;;;;;;;;;;5023929;28;20298;-67
2022/03/28 00:29:35;;;;;;;1.43;1.10;;;;;;;;;;5023631;28;20280;-68
2022/03/28 00:32:22;;;;;;;2.00;1.70;;;;;;;;;;5021390;28;20256;-67
2022/03/28 00:35:09;;;;;;;3.30;1.53;;;;;;;;;;5022539;28;20289;-67
2022/03/28 00:37:58;;;;;;;1.50;1.40;;;;;;;;;;5022129;28;20253;-66
2022/03/28 00:40:44;;;;;;;2.80;1.70;;;;;;;;;;5021584;28;20703;-67
2022/03/28 00:43:31;;;;;;;2.43;1.60;;;;;;;;;;5023738;28;20209;-67
2022/03/28 00:46:18;;;;;;;2.53;1.67;;;;;;;;;;5021513;28;20355;-67
2022/03/28 00:49:05;;;;;;;2.17;1.50;;;;;;;;;;5021160;28;20210;-68
2022/03/28 00:51:53;;;;;;;1.37;1.27;;;;;;;;;;5025243;28;20234;-67
2022/03/28 00:54:41;;;;;;;1.70;1.43;;;;;;;;;;5023224;28;20681;-66
2022/03/28 00:57:30;;;;;;;2.97;1.50;;;;;;;;;;5022330;28;20246;-67
2022/03/28 01:00:17;;;;;;;1.90;1.40;;;;;;;;;;5024938;28;20295;-66
2022/03/28 01:03:04;;;;;;;1.93;1.40;;;;;;;;;;5023258;28;20273;-73
2022/03/28 01:05:52;;;;;;;2.10;1.40;;;;;;;;;;5020643;28;20276;-72
2022/03/28 01:08:39;;;;;;;2.07;1.50;;;;;;;;;;5023478;28;20218;-72
2022/03/28 01:11:28;;;;;;;2.03;1.40;;;;;;;;;;5022993;28;20276;-73
2022/03/28 01:14:16;;;;;;;1.87;1.50;;;;;;;;;;5022421;28;20207;-72
2022/03/28 01:20:12;;;;;;;1.43;1.33;;;;;;;;;;5020488;28;20205;-73
2022/03/28 01:23:01;;;;;;;1.43;1.27;;;;;;;;;;5021947;28;20202;-71
2022/03/28 01:25:51;;;;;;;2.10;1.67;;;;;;;;;;5024172;28;20277;-72
2022/03/28 01:28:38;;;;;;;2.13;1.47;;;;;;;;;;5028491;28;20288;-73
2022/03/28 01:31:25;;;;;;;2.73;1.40;;;;;;;;;;5023707;28;20273;-72
2022/03/28 01:34:17;;;;;;;1.40;1.10;;;;;;;;;;5023412;28;20663;-72
2022/03/28 01:37:04;;;;;;;1.27;0.87;;;;;;;;;;5021432;28;20678;-72
2022/03/28 01:39:52;;;;;;;1.83;1.30;;;;;;;;;;5018355;28;20729;-73
2022/03/28 01:42:39;;;;;;;2.60;1.20;;;;;;;;;;5020157;28;20210;-72
2022/03/28 01:45:27;;;;;;;1.50;1.40;;;;;;;;;;5017931;28;20249;-72
2022/03/28 01:48:14;;;;;;;1.30;1.20;;;;;;;;;;5022005;28;20961;-72
2022/03/28 01:51:01;;;;;;;2.77;1.30;;;;;;;;;;5023092;28;20210;-72
2022/03/28 01:53:48;;;;;;;1.87;1.07;;;;;;;;;;5022190;28;20647;-72
2022/03/28 01:56:36;;;;;;;1.60;1.50;;;;;;;;;;5023672;28;20625;-72
2022/03/28 01:59:23;;;;;;;1.90;1.17;;;;;;;;;;5020562;28;20496;-72
2022/03/28 02:02:10;;;;;;;1.47;1.00;;;;;;;;;;5018573;28;20205;-72
2022/03/28 02:04:57;;;;;;;1.50;1.30;;;;;;;;;;5020535;28;20297;-72
2022/03/28 02:07:47;;;;;;;1.93;1.00;;;;;;;;;;5018985;28;20207;-71
2022/03/28 02:10:34;;;;;;;1.53;1.20;;;;;;;;;;5020184;28;20662;-72
2022/03/28 02:13:22;;;;;;;2.93;1.10;;;;;;;;;;5022491;28;20234;-72
2022/03/28 02:16:10;;;;;;;1.53;1.20;;;;;;;;;;5022010;28;20209;-72
2022/03/28 02:18:58;;;;;;;1.17;1.10;;;;;;;;;;5022796;28;20217;-72
2022/03/28 02:21:45;;;;;;;2.50;1.30;;;;;;;;;;5021574;28;20213;-72
2022/03/28 02:24:32;;;;;;;1.93;1.50;;;;;;;;;;5023304;28;20336;-72
2022/03/28 02:27:19;;;;;;;1.30;1.20;;;;;;;;;;5018803;28;20256;-72
2022/03/28 02:30:09;;;;;;;2.27;1.20;;;;;;;;;;5023824;28;20736;-72
2022/03/28 02:32:56;;;;;;;1.93;1.20;;;;;;;;;;5019059;28;20356;-72
2022/03/28 02:35:43;;;;;;;1.80;1.30;;;;;;;;;;5024962;28;20222;-72
2022/03/28 02:38:30;;;;;;;1.33;0.93;;;;;;;;;;5028740;28;20379;-72
2022/03/28 02:41:17;;;;;;;1.20;1.07;;;;;;;;;;5022306;28;20662;-71
2022/03/28 02:44:05;;;;;;;1.27;1.03;;;;;;;;;;5021953;28;20241;-70
2022/03/28 02:46:53;;;;;;;1.40;1.30;;;;;;;;;;5027647;28;20321;-72
2022/03/28 02:49:40;;;;;;;1.50;1.17;;;;;;;;;;5021609;28;20218;-72
2022/03/28 02:52:27;;;;;;;1.27;1.17;;;;;;;;;;5024073;28;20234;-72
2022/03/28 02:55:15;;;;;;;1.37;1.10;;;;;;;;;;5026807;28;20290;-72
2022/03/28 02:58:02;;;;;;;2.20;1.50;;;;;;;;;;5025889;28;20246;-72
2022/03/28 03:00:49;;;;;;;2.83;1.00;;;;;;;;;;5024051;28;20216;-72
2022/03/28 03:03:37;;;;;;;0.93;0.93;;;;;;;;;;5023663;28;20206;-72
2022/03/28 03:06:24;;;;;;;2.13;1.63;;;;;;;;;;5022568;28;20349;-72
2022/03/28 03:09:11;;;;;;;2.13;1.13;;;;;;;;;;5025205;28;20664;-72
2022/03/28 03:11:58;;;;;;;1.20;1.10;;;;;;;;;;5022702;28;20269;-72
2022/03/28 03:14:45;;;;;;;1.80;1.50;;;;;;;;;;5025607;28;20284;-71
2022/03/28 03:17:32;;;;;;;1.73;1.20;;;;;;;;;;5023508;28;20261;-72
2022/03/28 03:20:20;;;;;;;1.40;1.13;;;;;;;;;;5020476;28;20290;-72
2022/03/28 03:23:07;;;;;;;2.13;1.30;;;;;;;;;;5023160;28;20276;-71
2022/03/28 03:25:54;;;;;;;1.73;1.63;;;;;;;;;;5022722;28;20624;-72
2022/03/28 03:28:41;;;;;;;1.53;1.20;;;;;;;;;;5025187;28;20618;-72
2022/03/28 03:31:28;;;;;;;2.60;1.60;;;;;;;;;;5029929;28;20252;-72
2022/03/28 03:34:15;;;;;;;2.40;1.40;;;;;;;;;;5023758;28;20643;-72
2022/03/28 03:37:04;;;;;;;1.43;1.30;;;;;;;;;;5020040;28;20300;-72
2022/03/28 03:39:52;;;;;;;1.87;1.50;;;;;;;;;;5023318;28;21014;-73
2022/03/28 03:42:39;;;;;;;1.63;1.50;;;;;;;;;;5018904;28;20202;-72
2022/03/28 03:45:26;;;;;;;2.33;1.70;;;;;;;;;;5016254;28;20974;-72
2022/03/28 03:48:13;;;;;;;1.73;1.63;;;;;;;;;;5021461;28;20213;-72
2022/03/28 03:51:00;;;;;;;1.70;1.60;;;;;;;;;;5022685;28;20213;-72
2022/03/28 03:53:48;;;;;;;1.80;1.70;;;;;;;;;;5025564;28;20327;-72
2022/03/28 03:56:35;;;;;;;1.93;1.73;;;;;;;;;;5024864;28;20337;-72
2022/03/28 03:59:22;;;;;;;2.27;1.60;;;;;;;;;;5021730;28;20356;-72
2022/03/28 04:02:09;;;;;;;1.77;1.63;;;;;;;;;;5022743;28;20292;-71
2022/03/28 04:04:56;;;;;;;1.90;1.70;;;;;;;;;;5024936;28;20217;-71
2022/03/28 04:07:43;;;;;;;1.73;1.63;;;;;;;;;;5024161;28;20213;-72
2022/03/28 04:10:32;;;;;;;1.97;1.60;;;;;;;;;;5023538;28;20315;-72
2022/03/28 04:13:18;;;;;;;1.80;1.70;;;;;;;;;;5025056;28;20334;-72
2022/03/28 04:16:06;;;;;;;1.80;1.70;;;;;;;;;;5023665;28;20218;-71
2022/03/28 04:18:53;;;;;;;2.10;1.90;;;;;;;;;;5026475;28;20210;-72
2022/03/28 04:21:40;;;;;;;1.90;1.80;;;;;;;;;;5025064;28;20208;-72
2022/03/28 04:24:27;;;;;;;1.90;1.80;;;;;;;;;;5021129;28;20278;-72
2022/03/28 04:27:15;;;;;;;2.47;1.83;;;;;;;;;;5024211;28;20279;-72
2022/03/28 04:30:04;;;;;;;2.23;1.80;;;;;;;;;;5021730;28;20232;-72
2022/03/28 04:32:51;;;;;;;2.93;2.07;;;;;;;;;;5022805;28;20330;-71
2022/03/28 04:35:39;;;;;;;2.30;2.10;;;;;;;;;;5021787;28;20235;-72
2022/03/28 04:38:26;;;;;;;2.47;2.13;;;;;;;;;;5021675;28;20237;-72
2022/03/28 04:41:13;;;;;;;2.17;1.97;;;;;;;;;;5021574;28;20292;-72
2022/03/28 04:44:01;;;;;;;2.57;2.20;;;;;;;;;;5021216;28;20221;-71
2022/03/28 04:46:48;;;;;;;2.47;2.27;;;;;;;;;;5021515;28;20328;-72
2022/03/28 04:49:35;;;;;;;2.33;2.13;;;;;;;;;;5019824;28;20205;-71
2022/03/28 04:52:22;;;;;;;2.10;1.90;;;;;;;;;;5019336;28;20615;-72
2022/03/28 04:55:11;;;;;;;2.50;2.30;;;;;;;;;;5024682;28;20233;-71
2022/03/28 04:57:58;;;;;;;2.20;2.00;;;;;;;;;;5020228;28;20230;-71
2022/03/28 05:00:47;;;;;;;2.33;2.17;;;;;;;;;;5022076;28;20317;-71
2022/03/28 05:03:34;;;;;;;2.57;2.37;;;;;;;;;;5021251;28;20217;-72
2022/03/28 05:06:21;;;;;;;2.50;2.30;;;;;;;;;;5025670;28;20731;-71
2022/03/28 05:09:08;;;;;;;3.40;2.60;;;;;;;;;;5020106;28;20209;-72
2022/03/28 05:11:55;;;;;;;2.97;2.60;;;;;;;;;;5021866;28;20206;-72
2022/03/28 05:14:41;;;;;;;2.87;2.37;;;;;;;;;;5022550;28;20244;-72
2022/03/28 05:17:31;;;;;;;3.30;2.50;;;;;;;;;;5022422;28;20205;-72
2022/03/28 05:20:19;;;;;;;3.00;2.57;;;;;;;;;;5024108;28;20241;-71
2022/03/28 05:23:06;;;;;;;2.57;2.37;;;;;;;;;;5024263;28;20292;-71
2022/03/28 05:25:53;;;;;;;2.80;2.50;;;;;;;;;;5023762;28;20339;-72
2022/03/28 05:28:40;;;;;;;3.37;2.70;;;;;;;;;;5025155;28;20272;-72
2022/03/28 05:31:27;;;;;;;3.13;2.80;;;;;;;;;;5015199;28;20306;-71
2022/03/28 05:34:15;;;;;;;2.70;2.50;;;;;;;;;;5024900;28;20230;-72
2022/03/28 05:37:05;;;;;;;3.13;2.87;;;;;;;;;;5020217;28;20292;-72
2022/03/28 05:39:52;;;;;;;2.57;2.37;;;;;;;;;;5018870;28;20256;-72
2022/03/28 05:42:39;;;;;;;3.73;2.80;;;;;;;;;;5023586;28;20216;-72
2022/03/28 05:45:26;;;;;;;3.13;2.83;;;;;;;;;;5020008;28;20324;-71
2022/03/28 05:48:13;;;;;;;2.93;2.43;;;;;;;;;;5003693;28;20215;-72
2022/03/28 05:51:02;;;;;;;3.37;3.07;;;;;;;;;;5002436;28;20233;-72
2022/03/28 05:53:49;;;;;;;3.80;2.60;;;;;;;;;;5001414;28;20234;-71
2022/03/28 05:56:36;;;;;;;3.00;2.70;;;;;;;;;;5003112;28;20303;-72
2022/03/28 05:59:23;;;;;;;3.13;2.90;;;;;;;;;;5005211;28;20290;-72
2022/03/28 06:02:10;;;;;;;3.07;2.87;;;;;;;;;;5002712;28;20574;-71
2022/03/28 06:04:57;;;;;;;3.57;2.90;;;;;;;;;;5005238;28;20242;-72
2022/03/28 06:07:45;;;;;;;3.53;3.07;;;;;;;;;;5004926;28;20269;-72
2022/03/28 06:10:32;;;;;;;3.37;2.70;;;;;;;;;;5002076;28;20201;-72
2022/03/28 06:13:19;;;;;;;2.80;2.60;;;;;;;;;;5010775;28;20277;-72
2022/03/28 06:16:06;;;;;;;2.97;2.77;;;;;;;;;;5007407;28;20219;-72
2022/03/28 06:18:53;;;;;;;3.20;2.90;;;;;;;;;;5006880;28;20293;-72
2022/03/28 06:21:41;;;;;;;3.27;2.97;;;;;;;;;;5004839;28;20204;-72
2022/03/28 06:24:29;;;;;;;3.20;2.90;;;;;;;;;;5004613;28;20580;-72
2022/03/28 06:27:16;;;;;;;3.27;3.07;;;;;;;;;;5006836;28;20222;-72
2022/03/28 06:30:03;;;;;;;3.07;2.83;;;;;;;;;;5005241;28;20222;-72
2022/03/28 06:32:50;;;;;;;3.50;3.20;;;;;;;;;;5006540;28;20214;-71
2022/03/28 06:35:37;;;;;;;3.70;3.40;;;;;;;;;;5005330;28;20316;-72
2022/03/28 06:38:24;;;;;;;3.67;3.37;;;;;;;;;;5006300;28;20238;-72
2022/03/28 06:41:13;;;;;;;3.73;3.30;;;;;;;;;;5002988;28;20354;-72
2022/03/28 06:44:00;;;;;;;4.03;2.93;;;;;;;;;;4999969;28;20286;-72
2022/03/28 06:46:47;;;;;;;3.27;2.93;;;;;;;;;;5017873;28;20271;-72
2022/03/28 06:49:34;;;;;;;4.23;3.30;;;;;;;;;;5022693;28;20207;-72
2022/03/28 06:52:21;;;;;;;3.37;2.97;;;;;;;;;;5023810;28;20707;-71
2022/03/28 06:55:09;;;;;;;3.17;2.90;;;;;;;;;;5022948;28;20656;-72
2022/03/28 06:57:57;;;;;;;3.40;3.10;;;;;;;;;;5025606;28;20583;-72
2022/03/28 07:00:44;;;;;;;4.90;3.33;;;;;;;;;;5021493;28;20395;-72
2022/03/28 07:03:32;;;;;;;3.33;3.03;;;;;;;;;;5024228;28;20209;-71
2022/03/28 07:06:19;;;;;;;5.33;3.20;;;;;;;;;;5019123;28;20256;-72
2022/03/28 07:09:06;;;;;;;3.90;3.60;;;;;;;;;;5024271;28;20724;-71
2022/03/28 07:11:53;;;;;;;3.57;3.37;;;;;;;;;;5022558;28;20335;-71
2022/03/28 07:14:42;;;;;;;3.93;3.67;;;;;;;;;;5023065;28;20624;-71
2022/03/28 07:17:29;;;;;;;3.73;3.33;;;;;;;;;;5026722;28;20206;-71
2022/03/28 07:20:17;;;;;;;3.60;3.30;;;;;;;;;;5026078;28;20297;-71
2022/03/28 07:23:04;;;;;;;3.93;3.47;;;;;;;;;;5022321;28;20304;-72
2022/03/28 07:25:51;;;;;;;4.63;3.90;;;;;;;;;;5024284;28;20303;-72
2022/03/28 07:28:39;;;;;;;8.17;4.50;;;;;;;;;;5022466;28;20659;-72
2022/03/28 07:31:27;;;;;;;4.23;3.93;;;;;;;;;;5021611;28;20210;-72
2022/03/28 07:34:34;;;;;;;3.67;3.37;;;;;;;;;;5025596;28;20325;-72
2022/03/28 07:37:22;;;;;;;3.77;3.43;;;;;;;;;;5021616;28;20974;-72
2022/03/28 07:40:11;;;;;;;3.97;3.53;;;;;;;;;;5018965;28;20698;-72
2022/03/28 07:42:58;;;;;;;4.60;3.70;;;;;;;;;;5025311;28;20217;-72
2022/03/28 07:45:45;;;;;;;4.13;3.70;;;;;;;;;;5019999;28;20321;-72
2022/03/28 07:48:33;;;;;;;4.50;3.47;;;;;;;;;;5026673;28;20246;-72
2022/03/28 07:51:20;;;;;;;3.77;3.47;;;;;;;;;;5021235;28;20276;-71
2022/03/28 07:54:07;;;;;;;3.93;3.57;;;;;;;;;;5020767;28;20309;-71
2022/03/28 07:56:54;;;;;;;4.03;3.63;;;;;;;;;;5023288;28;20260;-72
2022/03/28 07:59:41;;;;;;;4.30;3.90;;;;;;;;;;5021000;28;20287;-72
2022/03/28 08:02:28;;;;;;;5.40;3.70;;;;;;;;;;5022935;28;20688;-71
2022/03/28 08:05:17;;;;;;;4.33;3.93;;;;;;;;;;5023601;28;20663;-72
2022/03/28 08:08:04;;;;;;;4.93;3.80;;;;;;;;;;5022989;28;20211;-72
2022/03/28 08:10:51;;;;;;;5.10;4.30;;;;;;;;;;5021856;28;20206;-72
2022/03/28 08:13:38;;;;;;;4.63;3.93;;;;;;;;;;5023071;28;20214;-71
2022/03/28 08:16:25;;;;;;;4.30;3.90;;;;;;;;;;5022493;28;20428;-72
2022/03/28 08:19:12;;;;;;;3.80;3.50;;;;;;;;;;5020916;28;20783;-72
2022/03/28 08:22:00;;;;;;;4.03;3.73;;;;;;;;;;5023271;28;20243;-73
2022/03/28 08:24:47;;;;;;;4.47;4.07;;;;;;;;;;5026019;28;20271;-71
2022/03/28 08:27:34;;;;;;;4.37;3.60;;;;;;;;;;5026093;28;20681;-72
2022/03/28 08:30:21;;;;;;;3.80;3.50;;;;;;;;;;5020685;28;20254;-72
2022/03/28 08:33:09;;;;;;;4.00;3.63;;;;;;;;;;5024795;28;20281;-72
2022/03/28 08:35:56;;;;;;;4.13;3.73;;;;;;;;;;5021761;28;20234;-72
2022/03/28 08:38:44;;;;;;;3.73;3.43;;;;;;;;;;5021404;28;20282;-72
2022/03/28 08:41:33;;;;;;;4.17;3.83;;;;;;;;;;5022709;28;20297;-72
2022/03/28 08:44:20;;;;;;;4.30;3.90;;;;;;;;;;5019575;28;20668;-72
2022/03/28 08:47:09;;;;;;;4.00;3.70;;;;;;;;;;5023939;28;20237;-72
2022/03/28 08:49:56;;;;;;;3.83;3.43;;;;;;;;;;5029006;28;20670;-72
2022/03/28 08:52:43;;;;;;;3.93;3.63;;;;;;;;;;5021522;28;20240;-72
2022/03/28 08:55:32;;;;;;;3.77;3.47;;;;;;;;;;5023299;28;20330;-71
2022/03/28 08:58:19;;;;;;;4.10;3.80;;;;;;;;;;5020697;28;20713;-72
2022/03/28 09:01:06;;;;;;;4.43;4.03;;;;;;;;;;5021723;28;20294;-73
2022/03/28 09:03:53;;;;;;;3.87;3.57;;;;;;;;;;5023863;28;20221;-72
2022/03/28 09:06:42;;;;;;;4.00;3.60;;;;;;;;;;5021774;28;20254;-73
2022/03/28 09:09:32;;;;;;;4.53;4.07;;;;;;;;;;5023237;28;20291;-72
2022/03/28 09:12:21;;;;;;;4.33;3.60;;;;;;;;;;5018869;28;20206;-73
2022/03/28 09:15:09;;;;;;;4.83;3.90;;;;;;;;;;5020114;28;20283;-71
2022/03/28 09:17:57;;;;;;;4.40;3.83;;;;;;;;;;5023316;28;20213;-73
2022/03/28 09:20:48;;;;;;;4.00;3.70;;;;;;;;;;5022854;28;20786;-73
2022/03/28 09:23:39;;;;;;;4.07;3.73;;;;;;;;;;5019663;28;20255;-73
2022/03/28 09:26:26;;;;;;;4.70;4.30;;;;;;;;;;5021538;28;20303;-73
2022/03/28 09:29:14;;;;;;;6.13;4.50;;;;;;;;;;5023063;28;20205;-72
2022/03/28 09:32:01;;;;;;;4.60;4.20;;;;;;;;;;5021380;28;20339;-72
2022/03/28 09:35:02;;;;;;;5.23;4.17;;;;;;;;;;5020367;28;20328;-72
2022/03/28 09:37:56;;;;;;;4.43;4.00;;;;;;;;;;5021456;28;20215;-72
2022/03/28 09:40:45;;;;;;;5.13;3.90;;;;;;;;;;5023922;28;20210;-73
2022/03/28 09:43:32;;;;;;;4.50;4.10;;;;;;;;;;5022870;28;20197;-73
2022/03/28 09:46:27;;;;;;;4.30;3.90;;;;;;;;;;5013970;28;20731;-72
2022/03/28 09:49:25;;;;;;;4.90;4.40;;;;;;;;;;5021302;28;20841;-72
2022/03/28 09:52:14;;;;;;;4.80;3.90;;;;;;;;;;5022018;28;20221;-72
2022/03/28 09:55:05;;;;;;;4.10;3.80;;;;;;;;;;5021868;28;20359;-72
2022/03/28 09:57:52;;;;;;;4.50;4.07;;;;;;;;;;5021963;28;20220;-72
2022/03/28 10:00:48;;;;;;;4.43;4.03;;;;;;;;;;5019493;28;20283;-72
2022/03/28 10:03:37;;;;;;;6.27;4.40;;;;;;;;;;5025735;28;20212;-72
2022/03/28 10:06:24;;;;;;;4.00;3.70;;;;;;;;;;5020127;28;20550;-72
2022/03/28 10:09:11;;;;;;;4.40;4.00;;;;;;;;;;5022707;28;20239;-73
2022/03/28 10:11:59;;;;;;;4.67;4.27;;;;;;;;;;5017811;28;20243;-72
2022/03/28 10:14:48;;;;;;;4.50;4.10;;;;;;;;;;5017438;28;20322;-71
2022/03/28 10:17:35;;;;;;;5.33;4.40;;;;;;;;;;5018691;28;20274;-72
2022/03/28 10:20:24;;;;;;;4.60;4.20;;;;;;;;;;5017186;28;20684;-72
2022/03/28 10:23:14;;;;;;;4.83;4.43;;;;;;;;;;5018330;28;20209;-72
2022/03/28 10:26:03;;;;;;;4.33;3.93;;;;;;;;;;5016878;28;20241;-72
2022/03/28 10:29:07;;;;;;;4.70;4.10;;;;;;;;;;5019736;28;20294;-72
2022/03/28 10:31:56;;;;;;;4.47;4.07;;;;;;;;;;5022932;28;20215;-73
2022/03/28 10:34:48;;;;;;;4.77;4.27;;;;;;;;;;5020282;28;20315;-73
2022/03/28 10:37:38;;;;;;;5.63;4.63;;;;;;;;;;5022680;28;20311;-73
2022/03/28 10:40:27;;;;;;;4.83;4.30;;;;;;;;;;5018712;28;20291;-73
2022/03/28 10:43:17;;;;;;;4.43;4.03;;;;;;;;;;5024722;28;20260;-73
2022/03/28 10:46:09;;;;;;;5.07;4.60;;;;;;;;;;5018448;28;20610;-72
2022/03/28 10:49:00;;;;;;;4.47;4.17;;;;;;;;;;5021464;28;20300;-72
2022/03/28 10:51:49;;;;;;;4.90;4.33;;;;;;;;;;5020623;28;20210;-73
2022/03/28 10:54:39;;;;;;;4.40;4.00;;;;;;;;;;5019817;28;20576;-72
2022/03/28 10:57:28;;;;;;;5.93;4.17;;;;;;;;;;5024198;28;20712;-72
2022/03/28 11:00:16;;;;;;;5.10;4.60;;;;;;;;;;5025171;28;20262;-72
2022/03/28 11:03:03;;;;;;;4.93;4.50;;;;;;;;;;5024801;28;20267;-73
2022/03/28 11:05:54;;;;;;;4.63;4.23;;;;;;;;;;5024237;28;20619;-72
2022/03/28 11:08:42;;;;;;;4.50;4.10;;;;;;;;;;5025450;28;20340;-72
2022/03/28 11:11:33;;;;;;;4.80;4.30;;;;;;;;;;5026729;28;20586;-72
2022/03/28 11:14:20;;;;;;;4.50;4.10;;;;;;;;;;5025934;28;20217;-72
2022/03/28 11:17:14;;;;;;;6.23;4.60;;;;;;;;;;5028331;28;20293;-73
2022/03/28 11:20:09;;;;;;;5.17;4.70;;;;;;;;;;5025429;28;20746;-73
2022/03/28 11:22:57;;;;;;;4.70;4.20;;;;;;;;;;5029693;28;20201;-73
2022/03/28 11:25:46;;;;;;;4.87;4.47;;;;;;;;;;5019947;28;20229;-73
2022/03/28 11:28:34;;;;;;;4.53;4.10;;;;;;;;;;5027407;28;20287;-72
2022/03/28 11:31:21;;;;;;;4.90;4.50;;;;;;;;;;5021935;28;20205;-73
2022/03/28 11:34:10;;;;;;;4.47;4.07;;;;;;;;;;5026941;28;20306;-73
2022/03/28 11:36:58;;;;;;;5.40;4.47;;;;;;;;;;5025032;28;20218;-73
2022/03/28 11:39:53;;;;;;;5.30;4.80;;;;;;;;;;5026447;28;20632;-73
2022/03/28 11:42:46;;;;;;;4.90;4.50;;;;;;;;;;5024896;28;20292;-73
2022/03/28 11:45:35;;;;;;;4.63;4.30;;;;;;;;;;5019778;28;20287;-73
2022/03/28 11:48:22;;;;;;;5.20;4.70;;;;;;;;;;5027260;28;20290;-72
2022/03/28 11:51:18;;;;;;;5.47;4.77;;;;;;;;;;5024232;28;20206;-72
2022/03/28 11:54:07;;;;;;;4.57;4.23;;;;;;;;;;5023701;28;20313;-73
2022/03/28 11:59:58;;;;;;;4.80;4.30;;;;;;;;;;5021016;28;20255;-72
2022/03/28 12:02:52;;;;;;;5.40;4.90;;;;;;;;;;5026771;28;20233;-71
2022/03/28 12:05:41;;;;;;;4.97;4.30;;;;;;;;;;5026644;28;20206;-72
2022/03/28 12:08:29;;;;;;;4.70;3.90;;;;;;;;;;5022575;28;20211;-72
2022/03/28 12:11:16;;;;;;;4.83;4.43;;;;;;;;;;5023808;28;20240;-72
2022/03/28 12:14:03;;;;;;;4.67;4.27;;;;;;;;;;5022369;28;20683;-72
2022/03/28 12:16:52;;;;;;;4.93;4.30;;;;;;;;;;5024796;28;20713;-73
2022/03/28 12:19:41;;;;;;;4.80;4.30;;;;;;;;;;5018270;28;20279;-73
2022/03/28 12:22:29;;;;;;;4.93;4.47;;;;;;;;;;5023088;28;20250;-72
2022/03/28 12:25:31;;;;;;;4.93;4.37;;;;;;;;;;5020042;28;20543;-73
2022/03/28 12:28:25;;;;;;;4.60;4.20;;;;;;;;;;5024541;28;20216;-72
2022/03/28 12:31:12;;;;;;;4.17;3.87;;;;;;;;;;5022862;28;20725;-72
2022/03/28 12:33:59;;;;;;;4.20;3.90;;;;;;;;;;5021634;28;20221;-72
2022/03/28 12:36:48;;;;;;;6.27;4.37;;;;;;;;;;5024869;28;20235;-71
2022/03/28 12:39:35;;;;;;;5.17;4.67;;;;;;;;;;5020019;28;20293;-73
2022/03/28 12:42:26;;;;;;;4.33;3.93;;;;;;;;;;5020708;28;20266;-73
2022/03/28 12:45:13;;;;;;;5.50;4.13;;;;;;;;;;5022638;28;20602;-73
2022/03/28 12:48:06;;;;;;;4.37;3.83;;;;;;;;;;5019377;28;20268;-73
2022/03/28 12:50:56;;;;;;;4.63;4.20;;;;;;;;;;5022956;28;20214;-73
2022/03/28 12:53:45;;;;;;;4.07;3.60;;;;;;;;;;5017305;28;20233;-73
2022/03/28 12:56:42;;;;;;;4.80;3.93;;;;;;;;;;5024260;28;20608;-72
2022/03/28 12:59:31;;;;;;;4.70;4.27;;;;;;;;;;5020326;28;20818;-73
2022/03/28 13:02:20;;;;;;;5.03;3.90;;;;;;;;;;5021699;28;20215;-73
2022/03/28 13:05:16;;;;;;;4.10;3.70;;;;;;;;;;5019162;28;20300;-72
2022/03/28 13:08:05;;;;;;;4.20;3.90;;;;;;;;;;5020808;28;20218;-72
2022/03/28 13:10:57;;;;;;;4.50;3.73;;;;;;;;;;5024100;28;20205;-72
2022/03/28 13:13:45;;;;;;;4.50;4.10;;;;;;;;;;5022808;28;20205;-73
2022/03/28 13:16:33;;;;;;;4.23;3.83;;;;;;;;;;5026373;28;20237;-72
2022/03/28 13:19:20;;;;;;;4.30;3.97;;;;;;;;;;5025088;28;20584;-73
2022/03/28 13:22:09;;;;;;;4.20;3.80;;;;;;;;;;5020511;28;20339;-72
2022/03/28 13:25:10;;;;;;;5.00;3.77;;;;;;;;;;5023383;28;20221;-72
2022/03/28 13:28:04;;;;;;;4.00;3.50;;;;;;;;;;5023256;28;20213;-72
2022/03/28 13:30:56;;;;;;;4.17;3.53;;;;;;;;;;5020107;28;20225;-71
2022/03/28 13:33:43;;;;;;;4.70;3.57;;;;;;;;;;5015745;28;20214;-72
2022/03/28 13:36:30;;;;;;;5.17;4.10;;;;;;;;;;5018865;28;20386;-70
2022/03/28 13:39:17;;;;;;;3.90;3.60;;;;;;;;;;5021439;28;20205;-72
2022/03/28 13:42:05;;;;;;;3.90;3.60;;;;;;;;;;5022659;28;20209;-71
2022/03/28 13:44:53;;;;;;;3.70;3.40;;;;;;;;;;5020179;28;20271;-72
2022/03/28 13:47:40;;;;;;;4.30;3.20;;;;;;;;;;5022195;28;20348;-72
2022/03/28 13:50:28;;;;;;;4.27;3.70;;;;;;;;;;5019745;28;20206;-72
2022/03/28 13:53:15;;;;;;;4.23;3.33;;;;;;;;;;5021429;28;20234;-72
2022/03/28 13:56:02;;;;;;;3.70;3.40;;;;;;;;;;5020176;28;20306;-72
2022/03/28 13:58:50;;;;;;;3.83;3.47;;;;;;;;;;5021547;28;20212;-72
2022/03/28 14:01:41;;;;;;;4.70;3.67;;;;;;;;;;5022483;28;20209;-71
2022/03/28 14:04:27;;;;;;;4.80;3.53;;;;;;;;;;5016980;28;20668;-72
2022/03/28 14:07:14;;;;;;;4.97;3.60;;;;;;;;;;5022201;28;20340;-72
2022/03/28 14:10:01;;;;;;;3.67;3.37;;;;;;;;;;5021580;28;20657;-72
2022/03/28 14:12:48;;;;;;;3.97;3.63;;;;;;;;;;5021839;28;20208;-72
2022/03/28 14:15:35;;;;;;;4.40;3.57;;;;;;;;;;5023104;28;20200;-72
2022/03/28 14:18:25;;;;;;;4.23;3.07;;;;;;;;;;5020572;28;20730;-72
2022/03/28 14:21:12;;;;;;;4.30;3.53;;;;;;;;;;5021663;28;20284;-72
2022/03/28 14:23:59;;;;;;;3.87;3.47;;;;;;;;;;5020931;28;20216;-71
2022/03/28 14:26:46;;;;;;;4.17;3.43;;;;;;;;;;5016660;28;20208;-72
2022/03/28 14:29:34;;;;;;;4.10;3.60;;;;;;;;;;5014990;28;20206;-72
2022/03/28 14:32:22;;;;;;;3.93;3.60;;;;;;;;;;5021842;28;20213;-72
2022/03/28 14:35:11;;;;;;;4.43;3.63;;;;;;;;;;5023411;28;20212;-72
2022/03/28 14:37:59;;;;;;;4.53;3.50;;;;;;;;;;5019747;28;20284;-73
2022/03/28 14:40:46;;;;;;;3.70;3.40;;;;;;;;;;5026960;28;20314;-73
2022/03/28 14:43:32;;;;;;;4.03;3.33;;;;;;;;;;5024542;28;20271;-73
2022/03/28 14:49:24;;;;;;;4.07;2.97;;;;;;;;;;5022267;28;20208;-74
2022/03/28 14:52:14;;;;;;;3.40;2.97;;;;;;;;;;5023835;28;20238;-70
2022/03/28 14:55:01;;;;;;;3.20;2.90;;;;;;;;;;5022628;28;20216;-73
2022/03/28 14:57:48;;;;;;;4.37;3.37;;;;;;;;;;5024403;28;20638;-73
2022/03/28 15:00:35;;;;;;;4.30;3.20;;;;;;;;;;5028244;28;20756;-72
2022/03/28 15:03:22;;;;;;;3.80;3.00;;;;;;;;;;5025628;28;20679;-73
2022/03/28 15:06:13;;;;;;;3.60;3.07;;;;;;;;;;5019949;28;20670;-73
2022/03/28 15:09:02;;;;;;;3.43;3.13;;;;;;;;;;5024418;28;20212;-73
2022/03/28 15:11:49;;;;;;;4.37;3.10;;;;;;;;;;5023215;28;20255;-73
2022/03/28 15:14:36;;;;;;;3.53;3.20;;;;;;;;;;5024489;28;20740;-73
2022/03/28 15:17:23;;;;;;;3.43;3.13;;;;;;;;;;5025602;28;20238;-73
2022/03/28 15:20:10;;;;;;;3.43;3.10;;;;;;;;;;5023283;28;20700;-73
2022/03/28 15:22:57;;;;;;;3.30;3.00;;;;;;;;;;5025882;28;20350;-72
2022/03/28 15:25:46;;;;;;;3.23;2.93;;;;;;;;;;5027388;28;20298;-73
2022/03/28 15:28:35;;;;;;;2.93;2.73;;;;;;;;;;5030065;28;20211;-72
2022/03/28 15:31:27;;;;;;;3.20;3.00;;;;;;;;;;5024724;28;20211;-72
2022/03/28 15:34:16;;;;;;;3.37;2.60;;;;;;;;;;5021193;28;20220;-72
2022/03/28 15:37:03;;;;;;;3.10;2.57;;;;;;;;;;5022368;28;20340;-72
2022/03/28 15:39:50;;;;;;;3.23;2.93;;;;;;;;;;5028110;28;20313;-72
2022/03/28 15:42:39;;;;;;;2.70;2.50;;;;;;;;;;5021023;28;20207;-72
2022/03/28 15:45:26;;;;;;;4.10;2.87;;;;;;;;;;5022199;28;20325;-72
2022/03/28 15:48:12;;;;;;;3.80;2.63;;;;;;;;;;5022644;28;20719;-73
2022/03/28 15:51:00;;;;;;;2.50;2.30;;;;;;;;;;5024526;28;20212;-72
2022/03/28 15:53:49;;;;;;;3.30;2.80;;;;;;;;;;5024925;28;20332;-72
2022/03/28 15:56:36;;;;;;;3.80;2.70;;;;;;;;;;5023058;28;20315;-72
2022/03/28 15:59:24;;;;;;;3.53;2.60;;;;;;;;;;5019916;28;20299;-72
2022/03/28 16:02:12;;;;;;;3.17;2.87;;;;;;;;;;5024263;28;20295;-71
2022/03/28 16:04:59;;;;;;;5.27;2.50;;;;;;;;;;5025797;28;20786;-73
2022/03/28 16:07:46;;;;;;;2.90;2.47;;;;;;;;;;5021830;28;20342;-72
2022/03/28 16:10:33;;;;;;;3.43;2.30;;;;;;;;;;5022997;28;20623;-72
2022/03/28 16:13:20;;;;;;;2.77;2.37;;;;;;;;;;5018455;28;20301;-72
2022/03/28 16:16:09;;;;;;;3.00;2.40;;;;;;;;;;5023085;28;20214;-72
2022/03/28 16:18:56;;;;;;;2.80;2.50;;;;;;;;;;5022297;28;20301;-72
2022/03/28 16:21:44;;;;;;;2.63;2.43;;;;;;;;;;5021213;28;20246;-72
2022/03/28 16:24:31;;;;;;;2.87;2.30;;;;;;;;;;5020032;28;20218;-71
2022/03/28 16:27:18;;;;;;;2.97;2.43;;;;;;;;;;5023186;28;20335;-72
2022/03/28 16:30:06;;;;;;;2.50;2.30;;;;;;;;;;5020768;28;20281;-72
2022/03/28 16:32:54;;;;;;;2.50;2.30;;;;;;;;;;5026623;28;20218;-71
2022/03/28 16:35:44;;;;;;;3.17;2.23;;;;;;;;;;5021193;28;20211;-72
2022/03/28 16:38:31;;;;;;;2.83;2.53;;;;;;;;;;5023457;28;20722;-71
2022/03/28 16:41:18;;;;;;;2.27;2.07;;;;;;;;;;5021643;28;20206;-72
2022/03/28 16:44:06;;;;;;;2.27;2.03;;;;;;;;;;5022297;28;20206;-72
2022/03/28 16:46:52;;;;;;;2.47;2.27;;;;;;;;;;5020677;28;20234;-72
2022/03/28 16:49:41;;;;;;;2.93;2.20;;;;;;;;;;5025969;28;20279;-73
2022/03/28 16:52:28;;;;;;;4.27;2.17;;;;;;;;;;5020226;28;20284;-72
2022/03/28 16:55:16;;;;;;;2.07;1.87;;;;;;;;;;5022414;28;20718;-72
2022/03/28 16:58:04;;;;;;;4.40;2.20;;;;;;;;;;5026645;28;20308;-72